sensor_id;sensor_type;location;lat;lon;timestamp;pressure;altitude;pressure_sealevel;temperature;humidity
19259;BME280;9763;48.780;9.212;2023-02-02T00:00:09;98985.25;;;9.19;61.13
19259;BME280;9763;48.780;9.212;2023-02-02T00:03:33;98997.34;;;9.20;60.92
19259;BME280;9763;48.780;9.212;2023-02-02T00:07:01;98985.56;;;9.13;60.46
19259;BME280;9763;48.780;9.212;2023-02-02T00:10:26;98990.44;;;9.19;60.65
19259;BME280;9763;48.780;9.212;2023-02-02T00:13:50;98991.31;;;9.19;60.71
19259;BME280;9763;48.780;9.212;2023-02-02T00:17:14;98984.34;;;9.20;61.09
19259;BME280;9763;48.780;9.212;2023-02-02T00:20:38;98979.97;;;9.20;61.14
19259;BME280;9763;48.780;9.212;2023-02-02T00:24:04;98982.50;;;9.22;60.87
19259;BME280;9763;48.780;9.212;2023-02-02T00:27:28;98982.50;;;9.22;61.41
19259;BME280;9763;48.780;9.212;2023-02-02T00:30:51;98984.25;;;9.21;61.45
19259;BME280;9763;48.780;9.212;2023-02-02T00:34:16;98997.22;;;9.23;60.90
19259;BME280;9763;48.780;9.212;2023-02-02T00:37:41;98982.56;;;9.20;60.77
19259;BME280;9763;48.780;9.212;2023-02-02T00:41:06;98984.25;;;9.21;61.44
19259;BME280;9763;48.780;9.212;2023-02-02T00:44:30;98988.63;;;9.21;61.04
19259;BME280;9763;48.780;9.212;2023-02-02T00:48:12;98979.06;;;9.21;61.65
19259;BME280;9763;48.780;9.212;2023-02-02T00:51:37;98972.84;;;9.24;61.18
19259;BME280;9763;48.780;9.212;2023-02-02T00:55:00;98975.44;;;9.24;61.48
19259;BME280;9763;48.780;9.212;2023-02-02T00:58:25;98970.16;;;9.25;61.12
19259;BME280;9763;48.780;9.212;2023-02-02T01:01:50;98955.38;;;9.26;61.79
19259;BME280;9763;48.780;9.212;2023-02-02T01:05:15;98961.28;;;9.29;61.91
19259;BME280;9763;48.780;9.212;2023-02-02T01:08:39;98961.13;;;9.32;61.15
19259;BME280;9763;48.780;9.212;2023-02-02T01:12:04;98981.03;;;9.33;61.80
19259;BME280;9763;48.780;9.212;2023-02-02T01:15:29;98978.50;;;9.32;61.40
19259;BME280;9763;48.780;9.212;2023-02-02T01:18:53;98993.00;;;9.37;61.80
19259;BME280;9763;48.780;9.212;2023-02-02T01:22:16;98989.47;;;9.38;61.71
19259;BME280;9763;48.780;9.212;2023-02-02T01:25:41;98986.03;;;9.38;61.65
19259;BME280;9763;48.780;9.212;2023-02-02T01:29:04;98998.97;;;9.39;61.32
19259;BME280;9763;48.780;9.212;2023-02-02T01:32:30;99000.72;;;9.39;61.58
19259;BME280;9763;48.780;9.212;2023-02-02T01:35:55;98990.69;;;9.31;62.30
19259;BME280;9763;48.780;9.212;2023-02-02T01:39:19;98995.75;;;9.34;61.71
19259;BME280;9763;48.780;9.212;2023-02-02T01:42:42;98994.81;;;9.35;62.01
19259;BME280;9763;48.780;9.212;2023-02-02T01:46:10;99008.69;;;9.36;62.25
19259;BME280;9763;48.780;9.212;2023-02-02T01:49:36;99006.09;;;9.36;62.22
19259;BME280;9763;48.780;9.212;2023-02-02T01:53:02;99002.56;;;9.37;62.08
19259;BME280;9763;48.780;9.212;2023-02-02T01:56:30;98997.44;;;9.35;62.15
19259;BME280;9763;48.780;9.212;2023-02-02T01:59:57;99005.09;;;9.38;62.41
19259;BME280;9763;48.780;9.212;2023-02-02T02:03:25;98971.09;;;9.24;62.20
19259;BME280;9763;48.780;9.212;2023-02-02T02:06:50;98994.69;;;9.38;62.42
19259;BME280;9763;48.780;9.212;2023-02-02T02:10:16;98989.53;;;9.37;62.63
19259;BME280;9763;48.780;9.212;2023-02-02T02:13:40;98981.72;;;9.37;62.69
19259;BME280;9763;48.780;9.212;2023-02-02T02:17:43;98977.59;;;9.33;62.57
19259;BME280;9763;48.780;9.212;2023-02-02T02:21:25;98986.94;;;9.37;62.46
19259;BME280;9763;48.780;9.212;2023-02-02T02:25:41;98989.63;;;9.35;62.71
19259;BME280;9763;48.780;9.212;2023-02-02T02:29:52;99001.81;;;9.35;62.80
19259;BME280;9763;48.780;9.212;2023-02-02T02:33:32;99003.56;;;9.34;63.11
19259;BME280;9763;48.780;9.212;2023-02-02T02:37:08;98991.38;;;9.35;62.59
19259;BME280;9763;48.780;9.212;2023-02-02T02:40:38;98998.34;;;9.34;63.07
19259;BME280;9763;48.780;9.212;2023-02-02T02:44:08;98983.72;;;9.32;62.60
19259;BME280;9763;48.780;9.212;2023-02-02T02:47:34;98987.00;;;9.35;62.48
19259;BME280;9763;48.780;9.212;2023-02-02T02:54:49;98987.00;;;9.35;62.55
19259;BME280;9763;48.780;9.212;2023-02-02T02:58:20;98993.06;;;9.36;62.93
19259;BME280;9763;48.780;9.212;2023-02-02T03:01:54;98989.53;;;9.37;62.79
19259;BME280;9763;48.780;9.212;2023-02-02T03:05:29;99004.19;;;9.39;63.21
19259;BME280;9763;48.780;9.212;2023-02-02T03:09:00;98992.84;;;9.41;63.07
19259;BME280;9763;48.780;9.212;2023-02-02T03:12:27;98995.44;;;9.41;63.39
19259;BME280;9763;48.780;9.212;2023-02-02T03:15:50;98997.13;;;9.42;63.02
19259;BME280;9763;48.780;9.212;2023-02-02T03:19:15;99004.97;;;9.42;62.99
19259;BME280;9763;48.780;9.212;2023-02-02T03:22:39;98993.59;;;9.43;62.87
19259;BME280;9763;48.780;9.212;2023-02-02T03:26:04;98999.63;;;9.43;63.14
19259;BME280;9763;48.780;9.212;2023-02-02T03:29:28;98991.75;;;9.45;63.04
19259;BME280;9763;48.780;9.212;2023-02-02T03:32:53;99000.41;;;9.45;63.42
19259;BME280;9763;48.780;9.212;2023-02-02T03:36:17;99000.34;;;9.47;62.92
19259;BME280;9763;48.780;9.212;2023-02-02T03:39:41;98996.03;;;9.46;63.07
19259;BME280;9763;48.780;9.212;2023-02-02T03:43:06;98996.88;;;9.46;62.92
19259;BME280;9763;48.780;9.212;2023-02-02T03:46:30;98996.81;;;9.48;63.45
19259;BME280;9763;48.780;9.212;2023-02-02T03:49:54;99000.25;;;9.48;63.26
19259;BME280;9763;48.780;9.212;2023-02-02T03:53:17;99008.91;;;9.49;62.85
19259;BME280;9763;48.780;9.212;2023-02-02T03:56:41;98999.34;;;9.49;62.94
19259;BME280;9763;48.780;9.212;2023-02-02T04:00:09;99005.03;;;9.40;63.03
19259;BME280;9763;48.780;9.212;2023-02-02T04:03:35;99021.19;;;9.47;62.74
19259;BME280;9763;48.780;9.212;2023-02-02T04:06:59;99029.00;;;9.47;62.72
19259;BME280;9763;48.780;9.212;2023-02-02T04:10:23;99032.50;;;9.46;63.38
19259;BME280;9763;48.780;9.212;2023-02-02T04:13:47;99029.84;;;9.47;63.47
19259;BME280;9763;48.780;9.212;2023-02-02T04:17:13;99024.63;;;9.47;63.36
19259;BME280;9763;48.780;9.212;2023-02-02T04:20:37;99031.59;;;9.47;62.93
19259;BME280;9763;48.780;9.212;2023-02-02T04:24:00;99030.69;;;9.48;63.05
19259;BME280;9763;48.780;9.212;2023-02-02T04:27:24;99021.94;;;9.49;63.40
19259;BME280;9763;48.780;9.212;2023-02-02T04:30:48;99029.75;;;9.49;63.18
19259;BME280;9763;48.780;9.212;2023-02-02T04:34:13;99029.84;;;9.47;63.04
19259;BME280;9763;48.780;9.212;2023-02-02T04:37:37;99035.91;;;9.48;63.63
19259;BME280;9763;48.780;9.212;2023-02-02T04:41:07;99038.44;;;9.49;63.56
19259;BME280;9763;48.780;9.212;2023-02-02T04:44:32;99041.81;;;9.51;63.73
19259;BME280;9763;48.780;9.212;2023-02-02T04:47:55;99044.41;;;9.51;63.53
19259;BME280;9763;48.780;9.212;2023-02-02T04:51:21;99045.19;;;9.53;63.17
19259;BME280;9763;48.780;9.212;2023-02-02T04:54:45;99049.44;;;9.54;63.33
19259;BME280;9763;48.780;9.212;2023-02-02T04:58:08;99045.19;;;9.53;63.16
19259;BME280;9763;48.780;9.212;2023-02-02T05:01:32;99056.34;;;9.55;63.65
19259;BME280;9763;48.780;9.212;2023-02-02T05:04:56;99052.03;;;9.54;63.86
19259;BME280;9763;48.780;9.212;2023-02-02T05:08:21;99052.16;;;9.53;63.71
19259;BME280;9763;48.780;9.212;2023-02-02T05:11:46;99056.53;;;9.52;63.63
19259;BME280;9763;48.780;9.212;2023-02-02T05:15:10;99060.88;;;9.52;63.66
19259;BME280;9763;48.780;9.212;2023-02-02T05:18:34;99053.91;;;9.52;63.45
19259;BME280;9763;48.780;9.212;2023-02-02T05:21:58;99065.19;;;9.53;63.83
19259;BME280;9763;48.780;9.212;2023-02-02T05:25:23;99068.63;;;9.53;63.58
19259;BME280;9763;48.780;9.212;2023-02-02T05:28:48;99072.06;;;9.54;63.95
19259;BME280;9763;48.780;9.212;2023-02-02T05:32:11;99071.13;;;9.55;63.43
19259;BME280;9763;48.780;9.212;2023-02-02T05:35:35;99066.69;;;9.57;63.44
19259;BME280;9763;48.780;9.212;2023-02-02T05:38:59;99065.78;;;9.58;63.40
19259;BME280;9763;48.780;9.212;2023-02-02T05:42:24;99058.78;;;9.58;63.46
19259;BME280;9763;48.780;9.212;2023-02-02T05:45:47;99062.31;;;9.57;64.03
19259;BME280;9763;48.780;9.212;2023-02-02T05:49:13;99063.25;;;9.56;63.40
19259;BME280;9763;48.780;9.212;2023-02-02T05:52:38;99071.13;;;9.55;64.15
19259;BME280;9763;48.780;9.212;2023-02-02T05:56:03;99069.47;;;9.54;63.64
19259;BME280;9763;48.780;9.212;2023-02-02T05:59:28;99060.72;;;9.55;63.71
19259;BME280;9763;48.780;9.212;2023-02-02T06:02:52;99064.25;;;9.54;63.73
19259;BME280;9763;48.780;9.212;2023-02-02T06:06:16;99067.69;;;9.54;64.19
19259;BME280;9763;48.780;9.212;2023-02-02T06:09:39;99069.38;;;9.55;63.82
19259;BME280;9763;48.780;9.212;2023-02-02T06:13:03;99065.00;;;9.56;63.65
19259;BME280;9763;48.780;9.212;2023-02-02T06:16:28;99075.44;;;9.56;63.61
19259;BME280;9763;48.780;9.212;2023-02-02T06:19:52;99076.34;;;9.55;64.28
19259;BME280;9763;48.780;9.212;2023-02-02T06:23:16;99076.34;;;9.55;64.23
19259;BME280;9763;48.780;9.212;2023-02-02T06:26:40;99091.97;;;9.55;64.27
19259;BME280;9763;48.780;9.212;2023-02-02T06:30:05;99088.53;;;9.54;64.09
19259;BME280;9763;48.780;9.212;2023-02-02T06:33:30;99098.94;;;9.54;63.73
19259;BME280;9763;48.780;9.212;2023-02-02T06:36:54;99099.78;;;9.55;64.43
19259;BME280;9763;48.780;9.212;2023-02-02T06:40:18;99107.59;;;9.55;64.10
19259;BME280;9763;48.780;9.212;2023-02-02T06:43:42;99101.47;;;9.56;64.14
19259;BME280;9763;48.780;9.212;2023-02-02T06:47:06;99104.09;;;9.56;64.09
19259;BME280;9763;48.780;9.212;2023-02-02T06:50:31;99114.44;;;9.57;64.17
19259;BME280;9763;48.780;9.212;2023-02-02T06:53:55;99114.38;;;9.59;64.46
19259;BME280;9763;48.780;9.212;2023-02-02T06:57:21;99116.06;;;9.60;63.79
19259;BME280;9763;48.780;9.212;2023-02-02T07:00:45;99108.16;;;9.61;64.39
19259;BME280;9763;48.780;9.212;2023-02-02T07:04:09;99110.69;;;9.63;63.83
19259;BME280;9763;48.780;9.212;2023-02-02T07:07:34;99112.47;;;9.62;63.79
19259;BME280;9763;48.780;9.212;2023-02-02T07:10:59;99108.09;;;9.63;64.23
19259;BME280;9763;48.780;9.212;2023-02-02T07:14:37;99112.38;;;9.64;64.20
19259;BME280;9763;48.780;9.212;2023-02-02T07:18:01;99107.84;;;9.67;63.89
19259;BME280;9763;48.780;9.212;2023-02-02T07:21:26;99102.75;;;9.66;63.73
19259;BME280;9763;48.780;9.212;2023-02-02T07:24:52;99118.28;;;9.67;63.54
19259;BME280;9763;48.780;9.212;2023-02-02T07:28:16;99124.25;;;9.69;63.92
19259;BME280;9763;48.780;9.212;2023-02-02T07:31:40;99114.69;;;9.70;64.06
19259;BME280;9763;48.780;9.212;2023-02-02T07:35:05;99118.81;;;9.74;63.37
19259;BME280;9763;48.780;9.212;2023-02-02T07:38:29;99135.25;;;9.76;63.69
19259;BME280;9763;48.780;9.212;2023-02-02T07:41:54;99131.53;;;9.80;63.69
19259;BME280;9763;48.780;9.212;2023-02-02T07:45:25;99124.47;;;9.82;63.54
19259;BME280;9763;48.780;9.212;2023-02-02T07:48:53;99140.81;;;9.86;64.15
19259;BME280;9763;48.780;9.212;2023-02-02T07:52:18;99138.91;;;9.89;64.01
19259;BME280;9763;48.780;9.212;2023-02-02T07:55:41;99136.97;;;9.93;63.63
19259;BME280;9763;48.780;9.212;2023-02-02T07:59:08;99134.28;;;9.94;64.16
19259;BME280;9763;48.780;9.212;2023-02-02T08:02:32;99121.09;;;9.97;64.21
19259;BME280;9763;48.780;9.212;2023-02-02T08:05:57;99103.84;;;9.95;63.75
19259;BME280;9763;48.780;9.212;2023-02-02T08:09:22;99113.88;;;10.02;63.64
19259;BME280;9763;48.780;9.212;2023-02-02T08:12:46;99118.78;;;10.08;64.16
19259;BME280;9763;48.780;9.212;2023-02-02T08:16:11;99123.84;;;10.11;63.87
19259;BME280;9763;48.780;9.212;2023-02-02T08:19:35;99141.84;;;10.16;64.03
19259;BME280;9763;48.780;9.212;2023-02-02T08:22:59;99139.06;;;10.21;63.61
19259;BME280;9763;48.780;9.212;2023-02-02T08:26:25;99170.88;;;10.27;64.09
19259;BME280;9763;48.780;9.212;2023-02-02T08:29:49;99165.66;;;10.27;63.72
19259;BME280;9763;48.780;9.212;2023-02-02T08:33:14;99167.34;;;10.28;63.93
19259;BME280;9763;48.780;9.212;2023-02-02T08:36:38;99174.19;;;10.31;64.02
19259;BME280;9763;48.780;9.212;2023-02-02T08:40:03;99186.31;;;10.32;63.52
19259;BME280;9763;48.780;9.212;2023-02-02T08:43:28;99188.00;;;10.33;63.48
19259;BME280;9763;48.780;9.212;2023-02-02T08:46:52;99186.22;;;10.33;63.94
19259;BME280;9763;48.780;9.212;2023-02-02T08:50:17;99178.69;;;10.27;63.82
19259;BME280;9763;48.780;9.212;2023-02-02T08:53:42;99181.31;;;10.27;63.42
19259;BME280;9763;48.780;9.212;2023-02-02T08:57:06;99206.34;;;10.31;63.78
19259;BME280;9763;48.780;9.212;2023-02-02T09:00:30;99208.94;;;10.31;64.00
19259;BME280;9763;48.780;9.212;2023-02-02T09:03:55;99210.63;;;10.32;63.97
19259;BME280;9763;48.780;9.212;2023-02-02T09:07:20;99215.84;;;10.32;63.35
19259;BME280;9763;48.780;9.212;2023-02-02T09:10:44;99218.53;;;10.31;63.62
19259;BME280;9763;48.780;9.212;2023-02-02T09:14:10;99220.28;;;10.30;63.52
19259;BME280;9763;48.780;9.212;2023-02-02T09:17:34;99204.63;;;10.30;62.99
19259;BME280;9763;48.780;9.212;2023-02-02T09:21:00;99210.78;;;10.29;62.56
19259;BME280;9763;48.780;9.212;2023-02-02T09:24:26;99208.94;;;10.31;63.33
19259;BME280;9763;48.780;9.212;2023-02-02T09:27:49;99227.13;;;10.33;62.80
19259;BME280;9763;48.780;9.212;2023-02-02T09:31:13;99213.09;;;10.35;62.77
19259;BME280;9763;48.780;9.212;2023-02-02T09:34:37;99210.34;;;10.38;63.29
19259;BME280;9763;48.780;9.212;2023-02-02T09:38:02;99213.59;;;10.42;62.60
19259;BME280;9763;48.780;9.212;2023-02-02T09:45:20;99211.69;;;10.45;63.04
19259;BME280;9763;48.780;9.212;2023-02-02T09:48:57;99229.97;;;10.45;62.75
19259;BME280;9763;48.780;9.212;2023-02-02T09:52:29;99229.97;;;10.45;62.66
19259;BME280;9763;48.780;9.212;2023-02-02T09:55:58;99230.94;;;10.43;62.67
19259;BME280;9763;48.780;9.212;2023-02-02T09:59:27;99237.16;;;10.40;63.00
19259;BME280;9763;48.780;9.212;2023-02-02T10:02:56;99235.41;;;10.41;62.62
19259;BME280;9763;48.780;9.212;2023-02-02T10:06:28;99247.59;;;10.40;63.40
19259;BME280;9763;48.780;9.212;2023-02-02T10:09:58;99240.69;;;10.39;63.12
19259;BME280;9763;48.780;9.212;2023-02-02T10:13:29;99229.41;;;10.39;62.94
19259;BME280;9763;48.780;9.212;2023-02-02T10:17:05;99241.72;;;10.37;63.38
19259;BME280;9763;48.780;9.212;2023-02-02T10:20:40;99235.03;;;10.31;63.59
19259;BME280;9763;48.780;9.212;2023-02-02T10:24:06;99248.31;;;10.44;63.01
19259;BME280;9763;48.780;9.212;2023-02-02T10:27:38;99261.44;;;10.42;63.47
19259;BME280;9763;48.780;9.212;2023-02-02T10:31:02;99255.28;;;10.43;63.33
19259;BME280;9763;48.780;9.212;2023-02-02T10:34:32;99254.28;;;10.46;63.43
19259;BME280;9763;48.780;9.212;2023-02-02T10:38:07;99255.22;;;10.45;62.93
19259;BME280;9763;48.780;9.212;2023-02-02T10:41:40;99261.34;;;10.44;62.85
19259;BME280;9763;48.780;9.212;2023-02-02T10:45:13;99257.81;;;10.45;63.43
19259;BME280;9763;48.780;9.212;2023-02-02T10:48:38;99262.06;;;10.48;62.80
19259;BME280;9763;48.780;9.212;2023-02-02T10:52:19;99251.81;;;10.43;62.56
19259;BME280;9763;48.780;9.212;2023-02-02T10:55:52;99245.47;;;10.31;62.72
19259;BME280;9763;48.780;9.212;2023-02-02T10:59:26;99249.38;;;10.40;63.15
19259;BME280;9763;48.780;9.212;2023-02-02T11:02:52;99262.97;;;10.46;63.49
19259;BME280;9763;48.780;9.212;2023-02-02T11:06:16;99266.09;;;10.53;63.10
19259;BME280;9763;48.780;9.212;2023-02-02T11:09:58;99255.34;;;10.59;63.36
19259;BME280;9763;48.780;9.212;2023-02-02T11:13:28;99260.56;;;10.59;63.09
19259;BME280;9763;48.780;9.212;2023-02-02T11:17:01;99249.28;;;10.59;62.91
19259;BME280;9763;48.780;9.212;2023-02-02T11:20:32;99243.16;;;10.60;63.20
19259;BME280;9763;48.780;9.212;2023-02-02T11:23:59;99245.69;;;10.61;63.21
19259;BME280;9763;48.780;9.212;2023-02-02T11:27:27;99237.59;;;10.66;63.05
19259;BME280;9763;48.780;9.212;2023-02-02T11:30:53;99251.84;;;10.76;62.97
19259;BME280;9763;48.780;9.212;2023-02-02T11:34:21;99243.38;;;10.88;63.33
19259;BME280;9763;48.780;9.212;2023-02-02T11:38:08;99245.69;;;10.94;62.65
19259;BME280;9763;48.780;9.212;2023-02-02T11:41:32;99236.06;;;10.95;62.93
19259;BME280;9763;48.780;9.212;2023-02-02T11:44:58;99234.38;;;10.94;63.46
19259;BME280;9763;48.780;9.212;2023-02-02T11:48:27;99236.22;;;10.92;62.49
19259;BME280;9763;48.780;9.212;2023-02-02T11:51:59;99232.19;;;10.86;62.63
19259;BME280;9763;48.780;9.212;2023-02-02T11:55:27;99236.72;;;10.82;62.69
19259;BME280;9763;48.780;9.212;2023-02-02T11:58:52;99243.78;;;10.80;62.52
19259;BME280;9763;48.780;9.212;2023-02-02T12:02:28;99237.88;;;10.77;63.05
19259;BME280;9763;48.780;9.212;2023-02-02T12:05:52;99244.28;;;10.71;63.30
19259;BME280;9763;48.780;9.212;2023-02-02T12:09:20;99247.56;;;10.75;63.45
19259;BME280;9763;48.780;9.212;2023-02-02T12:12:55;99240.56;;;10.75;63.10
19259;BME280;9763;48.780;9.212;2023-02-02T12:16:35;99236.19;;;10.76;63.29
19259;BME280;9763;48.780;9.212;2023-02-02T12:20:29;99246.63;;;10.76;62.96
19259;BME280;9763;48.780;9.212;2023-02-02T12:24:16;99240.13;;;10.67;63.11
19259;BME280;9763;48.780;9.212;2023-02-02T12:27:55;99235.25;;;10.61;63.44
19259;BME280;9763;48.780;9.212;2023-02-02T12:31:26;99239.06;;;10.54;63.32
19259;BME280;9763;48.780;9.212;2023-02-02T12:35:01;99235.03;;;10.49;63.36
19259;BME280;9763;48.780;9.212;2023-02-02T12:38:43;99234.25;;;10.46;63.88
19259;BME280;9763;48.780;9.212;2023-02-02T12:42:40;99243.84;;;10.46;63.59
19259;BME280;9763;48.780;9.212;2023-02-02T12:50:29;99236.44;;;10.38;63.93
19259;BME280;9763;48.780;9.212;2023-02-02T12:54:25;99241.94;;;10.32;63.73
19259;BME280;9763;48.780;9.212;2023-02-02T12:58:04;99236.09;;;10.27;64.51
19259;BME280;9763;48.780;9.212;2023-02-02T13:01:54;99239.88;;;10.22;64.22
19259;BME280;9763;48.780;9.212;2023-02-02T13:05:38;99243.34;;;10.22;65.03
19259;BME280;9763;48.780;9.212;2023-02-02T13:09:12;99221.69;;;10.20;64.35
19259;BME280;9763;48.780;9.212;2023-02-02T13:12:42;99234.66;;;10.22;64.44
19259;BME280;9763;48.780;9.212;2023-02-02T13:16:09;99246.94;;;10.20;64.51
19259;BME280;9763;48.780;9.212;2023-02-02T13:19:37;99252.31;;;10.15;65.02
19259;BME280;9763;48.780;9.212;2023-02-02T13:23:10;99258.84;;;10.06;64.84
19259;BME280;9763;48.780;9.212;2023-02-02T13:26:41;99255.41;;;10.06;65.24
19259;BME280;9763;48.780;9.212;2023-02-02T13:30:16;99255.47;;;10.04;65.22
19259;BME280;9763;48.780;9.212;2023-02-02T13:33:47;99266.59;;;10.08;64.80
19259;BME280;9763;48.780;9.212;2023-02-02T13:37:17;99257.72;;;10.12;65.31
19259;BME280;9763;48.780;9.212;2023-02-02T13:40:44;99261.00;;;10.16;64.84
19259;BME280;9763;48.780;9.212;2023-02-02T13:44:13;99258.28;;;10.19;64.95
19259;BME280;9763;48.780;9.212;2023-02-02T13:47:47;99254.28;;;10.11;64.74
19259;BME280;9763;48.780;9.212;2023-02-02T13:51:27;99277.94;;;10.26;64.87
19259;BME280;9763;48.780;9.212;2023-02-02T13:55:28;99278.00;;;10.24;65.03
19259;BME280;9763;48.780;9.212;2023-02-02T13:59:05;99293.50;;;10.27;64.83
19259;BME280;9763;48.780;9.212;2023-02-02T14:02:38;99286.50;;;10.28;65.05
19259;BME280;9763;48.780;9.212;2023-02-02T14:06:06;99280.44;;;10.27;65.46
19259;BME280;9763;48.780;9.212;2023-02-02T14:09:34;99285.66;;;10.27;65.36
19259;BME280;9763;48.780;9.212;2023-02-02T14:13:13;99284.75;;;10.28;65.47
19259;BME280;9763;48.780;9.212;2023-02-02T14:16:52;99284.75;;;10.28;64.92
19259;BME280;9763;48.780;9.212;2023-02-02T14:20:45;99275.78;;;10.34;64.83
19259;BME280;9763;48.780;9.212;2023-02-02T14:24:37;99291.31;;;10.37;65.21
19259;BME280;9763;48.780;9.212;2023-02-02T14:28:02;99285.91;;;10.40;65.16
19259;BME280;9763;48.780;9.212;2023-02-02T14:31:43;99277.94;;;10.43;64.58
19259;BME280;9763;48.780;9.212;2023-02-02T14:36:01;99278.84;;;10.42;64.64
19259;BME280;9763;48.780;9.212;2023-02-02T14:39:28;99269.41;;;10.39;64.98
19259;BME280;9763;48.780;9.212;2023-02-02T14:42:58;99286.00;;;10.38;64.40
19259;BME280;9763;48.780;9.212;2023-02-02T14:46:45;99306.88;;;10.38;64.44
19259;BME280;9763;48.780;9.212;2023-02-02T14:50:13;99305.19;;;10.37;64.05
19259;BME280;9763;48.780;9.212;2023-02-02T14:53:46;99303.50;;;10.36;64.66
19259;BME280;9763;48.780;9.212;2023-02-02T14:57:25;99288.75;;;10.35;64.62
19259;BME280;9763;48.780;9.212;2023-02-02T15:01:06;99298.22;;;10.38;63.93
19259;BME280;9763;48.780;9.212;2023-02-02T15:04:31;99291.97;;;10.40;64.62
19259;BME280;9763;48.780;9.212;2023-02-02T15:08:05;99290.19;;;10.41;64.25
19259;BME280;9763;48.780;9.212;2023-02-02T15:12:19;99283.28;;;10.40;63.81
19259;BME280;9763;48.780;9.212;2023-02-02T15:15:48;99299.06;;;10.38;64.39
19259;BME280;9763;48.780;9.212;2023-02-02T15:19:27;99292.16;;;10.37;64.11
19259;BME280;9763;48.780;9.212;2023-02-02T15:22:58;99297.66;;;10.31;63.33
19259;BME280;9763;48.780;9.212;2023-02-02T15:26:26;99304.41;;;10.35;63.50
19259;BME280;9763;48.780;9.212;2023-02-02T15:29:55;99312.25;;;10.35;63.59
19259;BME280;9763;48.780;9.212;2023-02-02T15:33:26;99316.53;;;10.36;63.80
19259;BME280;9763;48.780;9.212;2023-02-02T15:36:52;99318.31;;;10.36;63.58
19259;BME280;9763;48.780;9.212;2023-02-02T15:40:23;99321.91;;;10.33;63.63
19259;BME280;9763;48.780;9.212;2023-02-02T15:43:48;99333.34;;;10.31;63.52
19259;BME280;9763;48.780;9.212;2023-02-02T15:47:17;99334.25;;;10.30;63.39
19259;BME280;9763;48.780;9.212;2023-02-02T15:50:44;99333.47;;;10.28;63.70
19259;BME280;9763;48.780;9.212;2023-02-02T15:54:21;99346.63;;;10.26;63.63
19259;BME280;9763;48.780;9.212;2023-02-02T15:57:46;99345.84;;;10.24;63.07
19259;BME280;9763;48.780;9.212;2023-02-02T16:01:15;99372.84;;;10.23;63.43
19259;BME280;9763;48.780;9.212;2023-02-02T16:04:42;99373.69;;;10.24;63.32
19259;BME280;9763;48.780;9.212;2023-02-02T16:08:16;99380.59;;;10.25;63.56
19259;BME280;9763;48.780;9.212;2023-02-02T16:11:41;99384.97;;;10.24;63.25
19259;BME280;9763;48.780;9.212;2023-02-02T16:15:18;99397.19;;;10.24;63.55
19259;BME280;9763;48.780;9.212;2023-02-02T16:18:42;99403.31;;;10.23;63.29
19259;BME280;9763;48.780;9.212;2023-02-02T16:22:10;99403.31;;;10.23;63.69
19259;BME280;9763;48.780;9.212;2023-02-02T16:25:46;99420.59;;;10.25;63.87
19259;BME280;9763;48.780;9.212;2023-02-02T16:29:11;99428.41;;;10.25;63.31
19259;BME280;9763;48.780;9.212;2023-02-02T16:32:38;99440.63;;;10.25;63.61
19259;BME280;9763;48.780;9.212;2023-02-02T16:36:14;99453.66;;;10.25;63.59
19259;BME280;9763;48.780;9.212;2023-02-02T16:39:48;99456.28;;;10.25;63.78
19259;BME280;9763;48.780;9.212;2023-02-02T16:43:17;99467.44;;;10.27;63.83
19259;BME280;9763;48.780;9.212;2023-02-02T16:46:44;99466.63;;;10.26;63.26
19259;BME280;9763;48.780;9.212;2023-02-02T16:50:26;99466.69;;;10.25;63.54
19259;BME280;9763;48.780;9.212;2023-02-02T16:53:59;99471.84;;;10.26;63.74
19259;BME280;9763;48.780;9.212;2023-02-02T16:57:27;99492.63;;;10.28;63.18
19259;BME280;9763;48.780;9.212;2023-02-02T17:00:59;99500.38;;;10.29;63.31
19259;BME280;9763;48.780;9.212;2023-02-02T17:04:42;99497.78;;;10.29;63.40
19259;BME280;9763;48.780;9.212;2023-02-02T17:08:10;99518.59;;;10.31;63.66
19259;BME280;9763;48.780;9.212;2023-02-02T17:11:34;99513.44;;;10.29;63.61
19259;BME280;9763;48.780;9.212;2023-02-02T17:15:00;99515.13;;;10.30;63.87
19259;BME280;9763;48.780;9.212;2023-02-02T17:18:26;99515.97;;;10.31;63.82
19259;BME280;9763;48.780;9.212;2023-02-02T17:21:50;99520.28;;;10.32;63.45
19259;BME280;9763;48.780;9.212;2023-02-02T17:25:16;99528.09;;;10.32;63.13
19259;BME280;9763;48.780;9.212;2023-02-02T17:28:40;99533.41;;;10.30;63.61
19259;BME280;9763;48.780;9.212;2023-02-02T17:32:07;99542.91;;;10.31;63.19
19259;BME280;9763;48.780;9.212;2023-02-02T17:35:30;99533.34;;;10.32;63.61
19259;BME280;9763;48.780;9.212;2023-02-02T17:39:15;99558.56;;;10.31;63.44
19259;BME280;9763;48.780;9.212;2023-02-02T17:42:38;99559.41;;;10.32;63.54
19259;BME280;9763;48.780;9.212;2023-02-02T17:46:03;99552.50;;;10.31;63.61
19259;BME280;9763;48.780;9.212;2023-02-02T17:49:29;99563.78;;;10.31;63.21
19259;BME280;9763;48.780;9.212;2023-02-02T17:52:53;99568.09;;;10.32;64.02
19259;BME280;9763;48.780;9.212;2023-02-02T17:56:17;99564.63;;;10.32;63.32
19259;BME280;9763;48.780;9.212;2023-02-02T17:59:42;99579.44;;;10.31;63.67
19259;BME280;9763;48.780;9.212;2023-02-02T18:03:11;99583.75;;;10.32;63.56
19259;BME280;9763;48.780;9.212;2023-02-02T18:06:38;99591.72;;;10.29;63.35
19259;BME280;9763;48.780;9.212;2023-02-02T18:10:03;99589.03;;;10.31;63.89
19259;BME280;9763;48.780;9.212;2023-02-02T18:13:27;99588.19;;;10.30;63.46
19259;BME280;9763;48.780;9.212;2023-02-02T18:16:51;99585.50;;;10.32;64.05
19259;BME280;9763;48.780;9.212;2023-02-02T18:20:17;99592.50;;;10.31;64.00
19259;BME280;9763;48.780;9.212;2023-02-02T18:23:46;99595.09;;;10.31;63.91
19259;BME280;9763;48.780;9.212;2023-02-02T18:27:10;99601.31;;;10.29;63.92
19259;BME280;9763;48.780;9.212;2023-02-02T18:30:34;99593.47;;;10.29;63.98
19259;BME280;9763;48.780;9.212;2023-02-02T18:33:59;99591.72;;;10.29;63.84
19259;BME280;9763;48.780;9.212;2023-02-02T18:37:23;99589.25;;;10.26;63.45
19259;BME280;9763;48.780;9.212;2023-02-02T18:40:55;99597.16;;;10.25;63.75
19259;BME280;9763;48.780;9.212;2023-02-02T18:44:20;99587.63;;;10.24;63.81
19259;BME280;9763;48.780;9.212;2023-02-02T18:47:45;99587.63;;;10.24;63.77
19259;BME280;9763;48.780;9.212;2023-02-02T18:51:11;99591.94;;;10.25;63.58
19259;BME280;9763;48.780;9.212;2023-02-02T18:54:37;99578.09;;;10.23;63.91
19259;BME280;9763;48.780;9.212;2023-02-02T18:58:03;99602.56;;;10.20;63.33